Time;durP1;ratioP1;P1;durP2;ratioP2;P2;SDS_P1;SDS_P2;PMS_P1;PMS_P2;Temp;Humidity;BMP_temperature;BMP_pressure;BME280_temperature;BME280_humidity;BME280_pressure;Samples;Min_cycle;Max_cycle;Signal;HPM_P1;HPM_P2
2023/09/17 00:00:58;;;;;;;;;;;16.60;99.90;;;;;;4971222;28;19977;-33
2023/09/17 00:03:25;;;;;;;;;;;16.60;99.90;;;;;;4969967;28;19941;-32
2023/09/17 00:05:52;;;;;;;;;;;16.60;99.90;;;;;;4973032;28;20358;-32
2023/09/17 00:08:19;;;;;;;;;;;16.60;99.90;;;;;;4955092;28;20330;-31
2023/09/17 00:10:45;;;;;;;;;;;16.60;99.90;;;;;;4972637;28;19926;-31
2023/09/17 00:13:12;;;;;;;;;;;16.60;99.90;;;;;;4971191;28;19926;-31
2023/09/17 00:15:39;;;;;;;;;;;16.60;99.90;;;;;;4970368;28;19926;-31
2023/09/17 00:18:07;;;;;;;;;;;16.60;99.90;;;;;;4972056;28;19930;-31
2023/09/17 00:20:33;;;;;;;;;;;16.60;99.90;;;;;;4972303;28;19930;-31
2023/09/17 00:23:01;;;;;;;;;;;16.50;99.90;;;;;;4970992;28;19930;-33
2023/09/17 00:25:28;;;;;;;;;;;16.50;99.90;;;;;;4973038;28;19930;-32
2023/09/17 00:27:58;;;;;;;;;;;16.50;99.90;;;;;;4955213;28;19933;-31
2023/09/17 00:30:25;;;;;;;;;;;16.40;99.90;;;;;;4971249;28;19933;-31
2023/09/17 00:32:52;;;;;;;;;;;16.40;99.90;;;;;;4970913;28;20029;-31
2023/09/17 00:35:20;;;;;;;;;;;16.40;99.90;;;;;;4971787;28;19988;-31
2023/09/17 00:37:47;;;;;;;;;;;16.40;99.90;;;;;;4972142;28;19930;-32
2023/09/17 00:40:13;;;;;;;;;;;16.40;99.90;;;;;;4969864;28;19926;-31
2023/09/17 00:42:40;;;;;;;;;;;16.40;99.90;;;;;;4971450;28;19981;-32
2023/09/17 00:45:07;;;;;;;;;;;16.40;99.90;;;;;;4971228;28;19930;-32
2023/09/17 00:47:34;;;;;;;;;;;16.40;99.90;;;;;;4970027;28;19930;-32
2023/09/17 00:50:01;;;;;;;;;;;16.30;99.90;;;;;;4972505;28;20298;-31
2023/09/17 00:52:33;;;;;;;;;;;16.30;99.90;;;;;;4969273;28;21381;-32
2023/09/17 00:54:59;;;;;;;;;;;16.30;99.90;;;;;;4971091;28;19934;-32
2023/09/17 00:57:26;;;;;;;;;;;16.30;99.90;;;;;;4971029;28;19926;-31
2023/09/17 00:59:53;;;;;;;;;;;16.30;99.90;;;;;;4970643;28;20421;-32
2023/09/17 01:02:20;;;;;;;;;;;16.30;99.90;;;;;;4971008;28;19973;-32
2023/09/17 01:04:49;;;;;;;;;;;16.30;99.90;;;;;;4972245;28;20370;-32
2023/09/17 01:07:16;;;;;;;;;;;16.30;99.90;;;;;;4954745;28;19976;-32
2023/09/17 01:09:44;;;;;;;;;;;16.30;99.90;;;;;;4970302;28;19926;-32
2023/09/17 01:12:10;;;;;;;;;;;16.30;99.90;;;;;;4970324;28;20351;-32
2023/09/17 01:14:37;;;;;;;;;;;16.30;99.90;;;;;;4970053;28;20370;-34
2023/09/17 01:17:06;;;;;;;;;;;16.30;99.90;;;;;;4971778;28;19926;-33
2023/09/17 01:19:33;;;;;;;;;;;16.30;99.90;;;;;;4971952;28;19958;-33
2023/09/17 01:22:02;;;;;;;;;;;16.30;99.90;;;;;;4963815;28;20442;-32
2023/09/17 01:24:29;;;;;;;;;;;16.20;99.90;;;;;;4970808;28;19986;-32
2023/09/17 01:27:00;;;;;;;;;;;16.20;99.90;;;;;;4971100;28;19926;-32
2023/09/17 01:29:31;;;;;;;;;;;16.30;99.90;;;;;;4971532;28;19965;-33
2023/09/17 01:31:58;;;;;;;;;;;16.30;99.90;;;;;;4968797;28;20494;-33
2023/09/17 01:34:25;;;;;;;;;;;16.20;99.90;;;;;;4976076;28;19926;-32
2023/09/17 01:36:52;;;;;;;;;;;16.20;99.90;;;;;;4974140;28;19926;-32
2023/09/17 01:39:22;;;;;;;;;;;16.30;99.90;;;;;;4976084;28;19934;-33
2023/09/17 01:41:49;;;;;;;;;;;16.30;99.90;;;;;;4975753;28;19930;-31
2023/09/17 01:44:17;;;;;;;;;;;16.30;99.90;;;;;;4973967;28;19937;-32
2023/09/17 01:46:44;;;;;;;;;;;16.20;99.90;;;;;;4963164;28;20330;-31
2023/09/17 01:49:12;;;;;;;;;;;16.20;99.90;;;;;;4976515;28;19933;-32
2023/09/17 01:51:38;;;;;;;;;;;16.20;99.90;;;;;;4976432;28;20352;-32
2023/09/17 01:54:05;;;;;;;;;;;16.20;99.90;;;;;;4974760;28;19930;-32
2023/09/17 01:56:34;;;;;;;;;;;16.20;99.90;;;;;;4974996;28;19926;-31
2023/09/17 01:59:01;;;;;;;;;;;16.20;99.90;;;;;;4972746;28;20379;-32
2023/09/17 02:01:29;;;;;;;;;;;16.30;99.90;;;;;;4971511;28;19985;-32
2023/09/17 02:03:57;;;;;;;;;;;16.20;99.90;;;;;;4973497;28;20028;-32
2023/09/17 02:06:24;;;;;;;;;;;16.30;99.90;;;;;;4974463;28;19984;-32
2023/09/17 02:08:50;;;;;;;;;;;16.20;99.90;;;;;;4974047;28;19949;-32
2023/09/17 02:11:17;;;;;;;;;;;16.20;99.90;;;;;;4974424;28;20382;-32
2023/09/17 02:13:44;;;;;;;;;;;16.20;99.90;;;;;;4975218;28;20295;-33
2023/09/17 02:16:10;;;;;;;;;;;16.20;99.90;;;;;;4974001;28;20386;-32
2023/09/17 02:18:38;;;;;;;;;;;16.20;99.90;;;;;;4973867;28;20371;-33
2023/09/17 02:21:05;;;;;;;;;;;16.20;99.90;;;;;;4973382;28;19930;-31
2023/09/17 02:23:32;;;;;;;;;;;16.20;99.90;;;;;;4972521;28;19930;-35
2023/09/17 02:25:59;;;;;;;;;;;16.20;99.90;;;;;;4973957;28;19989;-32
2023/09/17 02:28:25;;;;;;;;;;;16.20;99.90;;;;;;4974620;28;19926;-31
2023/09/17 02:30:52;;;;;;;;;;;16.20;99.90;;;;;;4958491;28;19929;-32
2023/09/17 02:33:18;;;;;;;;;;;16.20;99.90;;;;;;4973599;28;19981;-32
2023/09/17 02:35:46;;;;;;;;;;;16.20;99.90;;;;;;4974142;28;19926;-33
2023/09/17 02:38:13;;;;;;;;;;;16.20;99.90;;;;;;4974324;28;19926;-32
2023/09/17 02:40:40;;;;;;;;;;;16.20;99.90;;;;;;4973262;28;19927;-32
2023/09/17 02:43:06;;;;;;;;;;;16.20;99.90;;;;;;4973883;28;19926;-33
2023/09/17 02:45:33;;;;;;;;;;;16.10;99.90;;;;;;4963041;28;19987;-32
2023/09/17 02:48:00;;;;;;;;;;;16.20;99.90;;;;;;4965224;28;19933;-32
2023/09/17 02:50:26;;;;;;;;;;;16.20;99.90;;;;;;4973716;28;20283;-32
2023/09/17 02:52:55;;;;;;;;;;;16.10;99.90;;;;;;4973711;28;19961;-33
2023/09/17 02:55:21;;;;;;;;;;;16.20;99.90;;;;;;4974581;28;20363;-32
2023/09/17 02:57:48;;;;;;;;;;;16.20;99.90;;;;;;4966934;28;19926;-32
2023/09/17 03:00:17;;;;;;;;;;;16.10;99.90;;;;;;4972726;28;20401;-32
2023/09/17 03:02:47;;;;;;;;;;;16.10;99.90;;;;;;4972425;28;19930;-33
2023/09/17 03:05:14;;;;;;;;;;;16.10;99.90;;;;;;4973342;28;19926;-32
2023/09/17 03:07:41;;;;;;;;;;;16.10;99.90;;;;;;4974851;28;19951;-32
2023/09/17 03:10:11;;;;;;;;;;;16.10;99.90;;;;;;4972675;28;19926;-32
2023/09/17 03:12:39;;;;;;;;;;;16.10;99.90;;;;;;4973363;28;19980;-31
2023/09/17 03:15:06;;;;;;;;;;;16.10;99.90;;;;;;4971993;28;19934;-32
2023/09/17 03:17:34;;;;;;;;;;;16.20;99.90;;;;;;4973059;28;20334;-31
2023/09/17 03:20:05;;;;;;;;;;;16.20;99.90;;;;;;4956869;28;19932;-31
2023/09/17 03:22:31;;;;;;;;;;;16.20;99.90;;;;;;4973260;28;19926;-32
2023/09/17 03:24:58;;;;;;;;;;;16.20;99.90;;;;;;4972158;28;20093;-31
2023/09/17 03:27:26;;;;;;;;;;;16.20;99.90;;;;;;4972659;28;19973;-32
2023/09/17 03:29:53;;;;;;;;;;;16.20;99.90;;;;;;4973336;28;19930;-32
2023/09/17 03:32:19;;;;;;;;;;;16.20;99.90;;;;;;4974420;28;19926;-31
2023/09/17 03:34:46;;;;;;;;;;;16.20;99.90;;;;;;4971100;28;19926;-34
2023/09/17 03:37:13;;;;;;;;;;;16.20;99.90;;;;;;4973759;28;20337;-32
2023/09/17 03:39:39;;;;;;;;;;;16.20;99.90;;;;;;4972426;28;19930;-33
2023/09/17 03:42:06;;;;;;;;;;;16.20;99.90;;;;;;4952688;28;19930;-33
2023/09/17 03:44:34;;;;;;;;;;;16.20;99.90;;;;;;4963738;28;19926;-32
2023/09/17 03:47:03;;;;;;;;;;;16.20;99.90;;;;;;4965798;28;19927;-33
2023/09/17 03:49:30;;;;;;;;;;;16.20;99.90;;;;;;4953557;28;19927;-33
2023/09/17 03:51:56;;;;;;;;;;;16.20;99.90;;;;;;4967291;28;19926;-32
2023/09/17 03:54:23;;;;;;;;;;;16.20;99.90;;;;;;4952229;29;20001;-32
2023/09/17 03:56:50;;;;;;;;;;;16.20;99.90;;;;;;4967636;28;20387;-31
2023/09/17 03:59:17;;;;;;;;;;;16.20;99.90;;;;;;4968557;28;19933;-32
2023/09/17 04:01:46;;;;;;;;;;;16.20;99.90;;;;;;4967401;28;19933;-31
2023/09/17 04:04:12;;;;;;;;;;;16.20;99.90;;;;;;4968431;28;19981;-32
2023/09/17 04:06:39;;;;;;;;;;;16.20;99.90;;;;;;4967942;28;19934;-32
2023/09/17 04:09:09;;;;;;;;;;;16.20;99.90;;;;;;4954053;28;19927;-32
2023/09/17 04:11:35;;;;;;;;;;;16.30;99.90;;;;;;4953438;28;20383;-32
2023/09/17 04:14:02;;;;;;;;;;;16.30;99.90;;;;;;4968121;28;19981;-31
2023/09/17 04:16:29;;;;;;;;;;;16.30;99.90;;;;;;4968397;28;20311;-32
2023/09/17 04:18:57;;;;;;;;;;;16.30;99.90;;;;;;4939077;29;20339;-32
2023/09/17 04:21:24;;;;;;;;;;;16.30;99.90;;;;;;4962779;28;19926;-31
2023/09/17 04:23:50;;;;;;;;;;;16.30;99.90;;;;;;4953223;29;19989;-31
2023/09/17 04:26:18;;;;;;;;;;;16.30;99.90;;;;;;4968045;28;19926;-32
2023/09/17 04:28:46;;;;;;;;;;;16.30;99.90;;;;;;4968638;28;19941;-32
2023/09/17 04:31:17;;;;;;;;;;;16.30;99.90;;;;;;4952018;29;20396;-32
2023/09/17 04:33:44;;;;;;;;;;;16.30;99.90;;;;;;4953332;29;20020;-33
2023/09/17 04:36:12;;;;;;;;;;;16.30;99.90;;;;;;4967414;28;19926;-32
2023/09/17 04:38:39;;;;;;;;;;;16.30;99.90;;;;;;4960148;28;20343;-32
2023/09/17 04:41:05;;;;;;;;;;;16.30;99.90;;;;;;4966511;28;20441;-32
2023/09/17 04:43:32;;;;;;;;;;;16.30;99.90;;;;;;4967455;28;20022;-34
2023/09/17 04:45:59;;;;;;;;;;;16.30;99.90;;;;;;4967632;28;19977;-31
2023/09/17 04:48:26;;;;;;;;;;;16.30;99.90;;;;;;4951571;29;19934;-32
2023/09/17 04:50:52;;;;;;;;;;;16.30;99.90;;;;;;4968137;28;19989;-32
2023/09/17 04:53:20;;;;;;;;;;;16.30;99.90;;;;;;4954282;28;20390;-32
2023/09/17 04:55:47;;;;;;;;;;;16.30;99.90;;;;;;4951474;28;19926;-31
2023/09/17 04:58:16;;;;;;;;;;;16.30;99.90;;;;;;4953823;28;19927;-32
2023/09/17 05:00:44;;;;;;;;;;;16.20;99.90;;;;;;4949548;28;19935;-32
2023/09/17 05:03:11;;;;;;;;;;;16.30;99.90;;;;;;4962724;28;19926;-31
2023/09/17 05:05:38;;;;;;;;;;;16.20;99.90;;;;;;4967830;28;20214;-32
2023/09/17 05:08:05;;;;;;;;;;;16.20;99.90;;;;;;4953214;28;19926;-32
2023/09/17 05:10:33;;;;;;;;;;;16.30;99.90;;;;;;4954515;29;20371;-33
2023/09/17 05:13:00;;;;;;;;;;;16.20;99.90;;;;;;4970303;28;19985;-31
2023/09/17 05:15:27;;;;;;;;;;;16.20;99.90;;;;;;4952808;29;19958;-33
2023/09/17 05:17:53;;;;;;;;;;;16.20;99.90;;;;;;4949085;29;19927;-32
2023/09/17 05:20:21;;;;;;;;;;;16.20;99.90;;;;;;4966588;28;19930;-31
2023/09/17 05:22:48;;;;;;;;;;;16.20;99.90;;;;;;4971366;28;20379;-32
2023/09/17 05:25:14;;;;;;;;;;;16.20;99.90;;;;;;4972582;28;20379;-32
2023/09/17 05:27:42;;;;;;;;;;;16.20;99.90;;;;;;4969922;28;20366;-31
2023/09/17 05:30:09;;;;;;;;;;;16.20;99.90;;;;;;4953604;29;20380;-32
2023/09/17 05:32:36;;;;;;;;;;;16.20;99.90;;;;;;4955045;29;19930;-31
2023/09/17 05:35:03;;;;;;;;;;;16.20;99.90;;;;;;4954556;29;19931;-31
2023/09/17 05:37:30;;;;;;;;;;;16.20;99.90;;;;;;4971166;28;19937;-32
2023/09/17 05:39:58;;;;;;;;;;;16.20;99.90;;;;;;4955938;29;20040;-31
2023/09/17 05:42:24;;;;;;;;;;;16.20;99.90;;;;;;4950922;29;20467;-31
2023/09/17 05:44:52;;;;;;;;;;;16.30;99.90;;;;;;4953371;29;19934;-34
2023/09/17 05:47:19;;;;;;;;;;;16.20;99.90;;;;;;4964439;28;20008;-31
2023/09/17 05:49:46;;;;;;;;;;;16.30;99.90;;;;;;4974323;28;19930;-31
2023/09/17 05:52:12;;;;;;;;;;;16.30;99.90;;;;;;4973269;28;19996;-32
2023/09/17 05:54:39;;;;;;;;;;;16.30;99.90;;;;;;4974370;28;20142;-34
2023/09/17 05:57:06;;;;;;;;;;;16.30;99.90;;;;;;4973453;28;19930;-31
2023/09/17 05:59:33;;;;;;;;;;;16.30;99.90;;;;;;4973899;28;19926;-31
2023/09/17 06:02:01;;;;;;;;;;;16.30;99.90;;;;;;4973855;28;19937;-33
2023/09/17 06:04:27;;;;;;;;;;;16.30;99.90;;;;;;4957424;28;19972;-32
2023/09/17 06:06:54;;;;;;;;;;;16.40;99.90;;;;;;4975308;28;19990;-32
2023/09/17 06:09:20;;;;;;;;;;;16.40;99.90;;;;;;4970099;28;19934;-32
2023/09/17 06:11:48;;;;;;;;;;;16.40;99.90;;;;;;4972258;28;19926;-32
2023/09/17 06:14:14;;;;;;;;;;;16.40;99.90;;;;;;4986505;28;19930;-31
2023/09/17 06:16:41;;;;;;;;;;;16.50;99.90;;;;;;4973495;28;19927;-31
2023/09/17 06:19:09;;;;;;;;;;;16.50;99.90;;;;;;4970904;28;19926;-31
2023/09/17 06:21:36;;;;;;;;;;;16.50;99.90;;;;;;4953899;28;19930;-32
2023/09/17 06:24:02;;;;;;;;;;;16.50;99.90;;;;;;4951545;28;19962;-31
2023/09/17 06:26:29;;;;;;;;;;;16.60;99.90;;;;;;4954209;28;19997;-31
2023/09/17 06:28:56;;;;;;;;;;;16.60;99.90;;;;;;4973342;28;20421;-31
2023/09/17 06:31:22;;;;;;;;;;;16.60;99.90;;;;;;4969607;28;20287;-31
2023/09/17 06:33:49;;;;;;;;;;;16.70;99.90;;;;;;4974259;28;19962;-32
2023/09/17 06:36:17;;;;;;;;;;;16.70;99.90;;;;;;4974429;28;20306;-32
2023/09/17 06:38:44;;;;;;;;;;;16.80;99.90;;;;;;4974055;28;19930;-31
2023/09/17 06:41:10;;;;;;;;;;;16.80;99.90;;;;;;4975376;28;19955;-31
2023/09/17 06:43:38;;;;;;;;;;;16.90;99.90;;;;;;4972933;28;20391;-32
2023/09/17 06:46:05;;;;;;;;;;;16.90;99.90;;;;;;4974206;28;19926;-32
2023/09/17 06:48:31;;;;;;;;;;;16.90;99.90;;;;;;4973219;28;20032;-31
2023/09/17 06:50:58;;;;;;;;;;;17.00;99.90;;;;;;4972115;28;19977;-32
2023/09/17 06:53:26;;;;;;;;;;;17.00;99.90;;;;;;4969923;28;19961;-32
2023/09/17 06:55:53;;;;;;;;;;;17.10;99.90;;;;;;4974140;28;19926;-31
2023/09/17 06:58:19;;;;;;;;;;;17.10;99.90;;;;;;4971670;28;19934;-31
2023/09/17 07:00:47;;;;;;;;;;;17.10;99.90;;;;;;4978547;28;20514;-31
2023/09/17 07:03:14;;;;;;;;;;;17.20;99.90;;;;;;4945163;28;20307;-31
2023/09/17 07:05:41;;;;;;;;;;;17.20;99.90;;;;;;4954921;28;20316;-31
2023/09/17 07:08:07;;;;;;;;;;;17.20;99.90;;;;;;4969226;28;19930;-31
2023/09/17 07:10:36;;;;;;;;;;;17.30;99.90;;;;;;4973466;28;20058;-32
2023/09/17 07:13:03;;;;;;;;;;;17.30;99.90;;;;;;4971646;28;20346;-31
2023/09/17 07:15:30;;;;;;;;;;;17.30;99.90;;;;;;4972229;28;20011;-31
2023/09/17 07:17:57;;;;;;;;;;;17.30;99.90;;;;;;4972190;28;19934;-31
2023/09/17 07:20:23;;;;;;;;;;;17.30;99.90;;;;;;4971164;28;19929;-31
2023/09/17 07:22:50;;;;;;;;;;;17.30;99.90;;;;;;4970906;28;20020;-31
2023/09/17 07:25:17;;;;;;;;;;;17.30;99.90;;;;;;4972479;28;19989;-31
2023/09/17 07:27:45;;;;;;;;;;;17.30;99.90;;;;;;4971814;28;19980;-31
2023/09/17 07:30:12;;;;;;;;;;;17.40;99.90;;;;;;4954256;28;19926;-30
2023/09/17 07:32:39;;;;;;;;;;;17.40;99.90;;;;;;4969675;28;19972;-30
2023/09/17 07:35:06;;;;;;;;;;;17.40;99.90;;;;;;4969883;28;19926;-32
2023/09/17 07:37:33;;;;;;;;;;;17.40;99.90;;;;;;4955338;28;20379;-32
2023/09/17 07:40:01;;;;;;;;;;;17.40;99.90;;;;;;4948251;28;19985;-31
2023/09/17 07:42:27;;;;;;;;;;;17.40;99.90;;;;;;4967188;28;19973;-31
2023/09/17 07:44:56;;;;;;;;;;;17.40;99.90;;;;;;4953516;28;19929;-31
2023/09/17 07:47:22;;;;;;;;;;;17.40;99.90;;;;;;4965468;28;19949;-33
2023/09/17 07:49:49;;;;;;;;;;;17.50;99.90;;;;;;4949378;28;19930;-30
2023/09/17 07:52:16;;;;;;;;;;;17.50;99.90;;;;;;4968777;28;19973;-31
2023/09/17 07:54:43;;;;;;;;;;;17.40;99.90;;;;;;4968281;28;19973;-31
2023/09/17 07:57:11;;;;;;;;;;;17.50;99.90;;;;;;4952576;28;19935;-31
2023/09/17 07:59:37;;;;;;;;;;;17.50;99.90;;;;;;4951800;28;19926;-31
2023/09/17 08:02:06;;;;;;;;;;;17.50;99.90;;;;;;4967087;28;19974;-30
2023/09/17 08:04:32;;;;;;;;;;;17.50;99.90;;;;;;4951768;28;20005;-31
2023/09/17 08:06:59;;;;;;;;;;;17.50;99.90;;;;;;4949675;29;19930;-30
2023/09/17 08:09:26;;;;;;;;;;;17.50;99.90;;;;;;4953314;28;20013;-31
2023/09/17 08:11:53;;;;;;;;;;;17.50;99.90;;;;;;4952843;28;19930;-30
2023/09/17 08:14:22;;;;;;;;;;;17.50;99.90;;;;;;4960296;28;20023;-30
2023/09/17 08:16:49;;;;;;;;;;;17.50;99.90;;;;;;4950245;28;20459;-30
2023/09/17 08:19:17;;;;;;;;;;;17.50;99.90;;;;;;4953903;28;19934;-31
2023/09/17 08:21:43;;;;;;;;;;;17.50;99.90;;;;;;4951946;28;20382;-30
2023/09/17 08:24:10;;;;;;;;;;;17.50;99.90;;;;;;4968043;28;19931;-31
2023/09/17 08:26:37;;;;;;;;;;;17.50;99.90;;;;;;4952119;28;20334;-31
2023/09/17 08:29:05;;;;;;;;;;;17.60;99.90;;;;;;4953046;28;19926;-30
2023/09/17 08:31:32;;;;;;;;;;;17.60;99.90;;;;;;4968087;28;19931;-31
2023/09/17 08:34:00;;;;;;;;;;;17.60;99.90;;;;;;4952072;28;19927;-31
2023/09/17 08:36:28;;;;;;;;;;;17.70;99.90;;;;;;4951298;29;19927;-30
2023/09/17 08:38:55;;;;;;;;;;;17.70;99.90;;;;;;4950259;29;19930;-31
2023/09/17 08:41:22;;;;;;;;;;;17.70;99.90;;;;;;4952827;29;19982;-31
2023/09/17 08:43:49;;;;;;;;;;;17.80;99.90;;;;;;4966706;28;19958;-33
2023/09/17 08:46:16;;;;;;;;;;;17.80;99.90;;;;;;4964682;28;19927;-31
2023/09/17 08:48:43;;;;;;;;;;;17.80;99.90;;;;;;4953308;28;19980;-31
2023/09/17 08:51:11;;;;;;;;;;;17.80;99.90;;;;;;4969052;28;20290;-31
2023/09/17 08:53:41;;;;;;;;;;;17.80;99.90;;;;;;4970982;28;20346;-31
2023/09/17 08:56:07;;;;;;;;;;;17.70;99.90;;;;;;4952630;28;20342;-33
2023/09/17 08:58:36;;;;;;;;;;;17.70;99.90;;;;;;4971876;28;19930;-31
2023/09/17 09:01:03;;;;;;;;;;;17.70;99.90;;;;;;4972287;28;20342;-31
2023/09/17 09:03:33;;;;;;;;;;;17.80;99.90;;;;;;4969960;28;19926;-30
2023/09/17 09:06:00;;;;;;;;;;;17.80;99.90;;;;;;4969609;28;19926;-31
2023/09/17 09:08:26;;;;;;;;;;;17.90;99.90;;;;;;4969013;28;19974;-31
2023/09/17 09:10:54;;;;;;;;;;;18.00;99.90;;;;;;4950175;28;20017;-31
2023/09/17 09:13:21;;;;;;;;;;;18.10;99.90;;;;;;4969423;28;20449;-31
2023/09/17 09:15:48;;;;;;;;;;;18.10;99.90;;;;;;4950450;28;20370;-31
2023/09/17 09:18:15;;;;;;;;;;;18.20;99.90;;;;;;4970661;28;19926;-31
2023/09/17 09:20:42;;;;;;;;;;;18.30;99.90;;;;;;4971859;28;19931;-32
2023/09/17 09:23:09;;;;;;;;;;;18.30;99.90;;;;;;4968010;28;20387;-31
2023/09/17 09:25:36;;;;;;;;;;;18.40;99.90;;;;;;4970565;28;20036;-31
2023/09/17 09:28:04;;;;;;;;;;;18.50;99.90;;;;;;4970219;28;20274;-31
2023/09/17 09:30:30;;;;;;;;;;;18.50;99.90;;;;;;4972080;28;19934;-33
2023/09/17 09:32:57;;;;;;;;;;;18.60;99.90;;;;;;4968869;28;20014;-28
2023/09/17 09:35:24;;;;;;;;;;;18.60;99.90;;;;;;4972120;28;19926;-30
2023/09/17 09:37:51;;;;;;;;;;;18.70;99.90;;;;;;4970288;28;20298;-31
2023/09/17 09:40:18;;;;;;;;;;;18.80;99.90;;;;;;4968001;28;20033;-32
2023/09/17 09:42:46;;;;;;;;;;;18.90;99.90;;;;;;4969534;28;20017;-31
2023/09/17 09:45:15;;;;;;;;;;;19.00;99.90;;;;;;4970202;28;20050;-31
2023/09/17 09:47:43;;;;;;;;;;;19.10;99.90;;;;;;4970229;28;20338;-32
2023/09/17 09:50:13;;;;;;;;;;;19.20;99.90;;;;;;4970406;28;19926;-31
2023/09/17 09:52:40;;;;;;;;;;;19.10;99.90;;;;;;4953796;28;19926;-32
2023/09/17 09:55:07;;;;;;;;;;;19.20;99.90;;;;;;4968644;28;19977;-31
2023/09/17 09:57:34;;;;;;;;;;;19.20;99.90;;;;;;4973502;28;19926;-31
2023/09/17 10:00:10;;;;;;;;;;;19.10;99.90;;;;;;4961074;28;19977;-31
2023/09/17 10:02:38;;;;;;;;;;;19.20;99.90;;;;;;4956614;28;19926;-31
2023/09/17 10:05:05;;;;;;;;;;;19.20;99.90;;;;;;4962348;28;19926;-31
2023/09/17 10:07:32;;;;;;;;;;;19.10;99.90;;;;;;4953316;28;19937;-31
2023/09/17 10:09:58;;;;;;;;;;;19.10;99.90;;;;;;4970251;28;19930;-31
2023/09/17 10:12:25;;;;;;;;;;;19.10;99.90;;;;;;4971566;28;20290;-33
2023/09/17 10:14:52;;;;;;;;;;;19.10;99.90;;;;;;4972257;28;19930;-32
2023/09/17 10:17:19;;;;;;;;;;;19.00;99.90;;;;;;4964090;28;19973;-31
2023/09/17 10:19:47;;;;;;;;;;;18.90;99.90;;;;;;4972666;28;20358;-33
2023/09/17 10:22:14;;;;;;;;;;;18.90;99.90;;;;;;4968936;28;19926;-32
2023/09/17 10:24:40;;;;;;;;;;;18.90;99.90;;;;;;4971644;28;19934;-35
2023/09/17 10:27:07;;;;;;;;;;;18.90;99.90;;;;;;4972127;28;19926;-35
2023/09/17 10:29:34;;;;;;;;;;;18.90;99.90;;;;;;4948865;28;19927;-32
2023/09/17 10:32:01;;;;;;;;;;;18.80;99.90;;;;;;4954707;28;19926;-32
2023/09/17 10:34:30;;;;;;;;;;;18.70;99.90;;;;;;4972611;28;20367;-33
2023/09/17 10:36:58;;;;;;;;;;;18.70;99.90;;;;;;4973466;28;20370;-33
2023/09/17 10:39:25;;;;;;;;;;;18.70;99.90;;;;;;4973370;28;19930;-32
2023/09/17 10:41:52;;;;;;;;;;;18.80;99.90;;;;;;4948986;28;19937;-33
2023/09/17 10:44:19;;;;;;;;;;;18.80;99.90;;;;;;4950636;28;20013;-33
2023/09/17 10:46:46;;;;;;;;;;;18.90;99.90;;;;;;4972867;28;19926;-32
2023/09/17 10:49:13;;;;;;;;;;;18.90;99.90;;;;;;4973463;28;19930;-32
2023/09/17 10:51:40;;;;;;;;;;;18.90;99.90;;;;;;4973473;28;19973;-32
2023/09/17 10:54:08;;;;;;;;;;;18.90;99.90;;;;;;4973421;28;19933;-32
2023/09/17 10:56:35;;;;;;;;;;;18.90;99.90;;;;;;4974063;28;19926;-30
2023/09/17 10:59:01;;;;;;;;;;;18.90;99.90;;;;;;4974141;28;19934;-30
2023/09/17 11:01:28;;;;;;;;;;;19.00;99.90;;;;;;4972298;28;19926;-31
2023/09/17 11:03:58;;;;;;;;;;;19.00;99.90;;;;;;4965390;28;19973;-31
2023/09/17 11:06:25;;;;;;;;;;;19.10;99.90;;;;;;4962235;28;19986;-32
2023/09/17 11:08:51;;;;;;;;;;;19.10;99.90;;;;;;4968169;28;20413;-32
2023/09/17 11:11:19;;;;;;;;;;;19.20;99.90;;;;;;4970780;28;20485;-33
2023/09/17 11:13:46;;;;;;;;;;;19.20;99.90;;;;;;4973256;28;19933;-34
2023/09/17 11:16:14;;;;;;;;;;;19.30;99.90;;;;;;4968091;28;19977;-32
2023/09/17 11:18:41;;;;;;;;;;;19.40;99.90;;;;;;4970670;28;19926;-33
2023/09/17 11:21:08;;;;;;;;;;;19.50;99.90;;;;;;4972078;28;20350;-32
2023/09/17 11:23:38;;;;;;;;;;;19.50;99.90;;;;;;4956378;28;20013;-32
2023/09/17 11:26:05;;;;;;;;;;;19.60;99.90;;;;;;4955487;28;19962;-33
2023/09/17 11:28:35;;;;;;;;;;;19.70;99.90;;;;;;4970690;28;20083;-32
2023/09/17 11:31:03;;;;;;;;;;;19.80;99.90;;;;;;4972070;28;20271;-31
2023/09/17 11:33:30;;;;;;;;;;;20.00;99.90;;;;;;4969003;28;20398;-30
2023/09/17 11:35:57;;;;;;;;;;;20.10;99.90;;;;;;4954365;28;19977;-32
2023/09/17 11:38:24;;;;;;;;;;;20.20;99.90;;;;;;4970980;28;19926;-31
2023/09/17 11:41:01;;;;;;;;;;;20.20;99.90;;;;;;4968913;28;20173;-31
2023/09/17 11:43:28;;;;;;;;;;;20.30;99.90;;;;;;4955769;28;19933;-32
2023/09/17 11:45:56;;;;;;;;;;;20.30;99.90;;;;;;4973273;28;19926;-32
2023/09/17 11:48:22;;;;;;;;;;;20.30;99.90;;;;;;4951541;28;19938;-32
2023/09/17 11:50:49;;;;;;;;;;;20.40;99.90;;;;;;4969832;28;19973;-32
2023/09/17 11:53:16;;;;;;;;;;;20.30;99.90;;;;;;4966154;28;20102;-31
2023/09/17 11:55:46;;;;;;;;;;;20.40;99.90;;;;;;4969009;28;20072;-32
2023/09/17 11:58:16;;;;;;;;;;;20.50;99.90;;;;;;4965648;28;19935;-34
2023/09/17 12:00:42;;;;;;;;;;;20.60;99.90;;;;;;4969580;28;19999;-31
2023/09/17 12:03:11;;;;;;;;;;;20.70;99.90;;;;;;4970443;28;20394;-31
2023/09/17 12:05:39;;;;;;;;;;;20.80;99.90;;;;;;4966257;28;20013;-33
2023/09/17 12:08:06;;;;;;;;;;;20.90;99.90;;;;;;4971049;28;19930;-32
2023/09/17 12:10:37;;;;;;;;;;;20.90;99.90;;;;;;4971711;28;19930;-33
2023/09/17 12:13:03;;;;;;;;;;;20.90;99.90;;;;;;4969724;28;19926;-33
2023/09/17 12:15:31;;;;;;;;;;;20.90;99.90;;;;;;4972971;28;19930;-31
2023/09/17 12:17:58;;;;;;;;;;;21.00;99.90;;;;;;4966876;28;19941;-31
2023/09/17 12:20:40;;;;;;;;;;;21.00;99.90;;;;;;4970191;28;19934;-32
2023/09/17 12:23:14;;;;;;;;;;;21.10;99.90;;;;;;4967388;28;19926;-35
2023/09/17 12:25:44;;;;;;;;;;;21.10;99.90;;;;;;4969953;28;20442;-32
2023/09/17 12:28:11;;;;;;;;;;;21.00;99.90;;;;;;4973403;28;19993;-32
2023/09/17 12:30:38;;;;;;;;;;;21.10;99.90;;;;;;4971571;28;20299;-32
2023/09/17 12:33:05;;;;;;;;;;;21.10;99.90;;;;;;4970222;28;20353;-33
2023/09/17 12:35:33;;;;;;;;;;;21.00;99.90;;;;;;4972297;28;19930;-34
2023/09/17 12:38:00;;;;;;;;;;;21.00;99.90;;;;;;4967945;28;20295;-31
2023/09/17 12:40:27;;;;;;;;;;;21.00;99.90;;;;;;4965452;28;19946;-31
2023/09/17 12:42:54;;;;;;;;;;;21.00;99.90;;;;;;4969982;28;19929;-32
2023/09/17 12:45:23;;;;;;;;;;;21.10;99.90;;;;;;4970512;28;19934;-32
2023/09/17 12:47:49;;;;;;;;;;;21.00;99.90;;;;;;4954262;28;19937;-33
2023/09/17 12:50:18;;;;;;;;;;;21.10;99.90;;;;;;4933940;29;19985;-32
2023/09/17 12:52:46;;;;;;;;;;;21.00;99.90;;;;;;4933650;29;19930;-31
2023/09/17 12:55:12;;;;;;;;;;;21.00;99.90;;;;;;4952105;29;19931;-32
2023/09/17 12:57:39;;;;;;;;;;;21.00;99.90;;;;;;4951241;29;20344;-31
2023/09/17 13:00:07;;;;;;;;;;;21.00;99.90;;;;;;4950969;28;20144;-31
2023/09/17 13:02:35;;;;;;;;;;;21.00;99.90;;;;;;4952016;29;20030;-31
2023/09/17 13:05:01;;;;;;;;;;;21.00;99.90;;;;;;4951452;29;19989;-31
2023/09/17 13:07:28;;;;;;;;;;;21.00;99.90;;;;;;4952571;29;19933;-31
2023/09/17 13:09:57;;;;;;;;;;;21.00;99.90;;;;;;4950071;29;19934;-31
2023/09/17 13:12:24;;;;;;;;;;;20.90;99.90;;;;;;4953721;29;19930;-31
2023/09/17 13:14:51;;;;;;;;;;;20.90;99.90;;;;;;4951985;29;20351;-32
2023/09/17 13:17:18;;;;;;;;;;;20.90;99.90;;;;;;4937047;29;20371;-32
2023/09/17 13:19:45;;;;;;;;;;;20.90;99.90;;;;;;4954138;29;20411;-32
2023/09/17 13:22:12;;;;;;;;;;;21.00;99.90;;;;;;4949721;28;19926;-32
2023/09/17 13:24:40;;;;;;;;;;;21.00;99.90;;;;;;4927779;29;19974;-33
2023/09/17 13:27:10;;;;;;;;;;;20.90;99.90;;;;;;4948074;29;19938;-33
2023/09/17 13:29:38;;;;;;;;;;;21.00;99.90;;;;;;4951434;29;19981;-32
2023/09/17 13:32:04;;;;;;;;;;;20.90;99.90;;;;;;4937903;29;19926;-33
2023/09/17 13:34:31;;;;;;;;;;;21.00;99.90;;;;;;4939231;29;19926;-32
2023/09/17 13:36:58;;;;;;;;;;;20.90;99.90;;;;;;4955420;29;19926;-32
2023/09/17 13:39:24;;;;;;;;;;;20.90;99.90;;;;;;4951591;29;19974;-33
2023/09/17 13:41:54;;;;;;;;;;;21.10;99.90;;;;;;4956914;29;20387;-31
2023/09/17 13:44:22;;;;;;;;;;;21.20;99.90;;;;;;4936831;29;19926;-33
2023/09/17 13:46:49;;;;;;;;;;;21.20;99.90;;;;;;4941452;28;20440;-33
2023/09/17 13:49:16;;;;;;;;;;;21.30;99.90;;;;;;4974898;28;20342;-33
2023/09/17 13:51:42;;;;;;;;;;;21.30;99.90;;;;;;4974268;28;20382;-34
2023/09/17 13:54:09;;;;;;;;;;;21.30;99.90;;;;;;4973240;28;19930;-34
2023/09/17 13:56:36;;;;;;;;;;;21.30;99.90;;;;;;4972520;28;20323;-32
2023/09/17 13:59:02;;;;;;;;;;;21.20;99.90;;;;;;4970111;28;20431;-34
2023/09/17 14:01:30;;;;;;;;;;;21.20;99.90;;;;;;4972092;28;20441;-33
2023/09/17 14:03:57;;;;;;;;;;;21.20;99.90;;;;;;4973155;28;19926;-33
2023/09/17 14:06:24;;;;;;;;;;;21.20;99.90;;;;;;4972742;28;19930;-32
2023/09/17 14:08:50;;;;;;;;;;;21.20;99.90;;;;;;4972114;28;19934;-33
2023/09/17 14:11:18;;;;;;;;;;;21.20;99.90;;;;;;4975456;28;19926;-32
2023/09/17 14:13:44;;;;;;;;;;;21.30;99.90;;;;;;4971363;28;19992;-34
2023/09/17 14:16:11;;;;;;;;;;;21.20;99.90;;;;;;4975856;28;20447;-31